createdAt,value
2018-02-01T00:01:30.215Z,2.20
2018-02-01T00:04:00.132Z,2.63
2018-02-01T00:06:30.199Z,2.20
2018-02-01T00:09:00.082Z,2.10
2018-02-01T00:11:30.277Z,2.53
2018-02-01T00:14:00.164Z,1.80
2018-02-01T00:16:30.624Z,2.17
2018-02-01T00:19:00.474Z,3.37
2018-02-01T00:21:30.402Z,2.70
2018-02-01T00:24:00.230Z,2.50
2018-02-01T00:26:30.163Z,2.13
2018-02-01T00:29:00.079Z,3.20
2018-02-01T00:31:30.194Z,2.90
2018-02-01T00:34:01.131Z,3.10
2018-02-01T00:36:31.037Z,2.67
2018-02-01T00:39:00.909Z,2.93
2018-02-01T00:41:31.588Z,2.90
2018-02-01T00:44:01.464Z,2.90
2018-02-01T00:46:31.340Z,2.40
2018-02-01T00:49:01.556Z,4.13
2018-02-01T00:51:31.469Z,3.23
2018-02-01T00:54:01.322Z,3.23
2018-02-01T00:56:31.294Z,3.20
2018-02-01T00:59:01.220Z,3.17
2018-02-01T01:01:31.130Z,3.37
2018-02-01T01:04:01.759Z,3.20
2018-02-01T01:06:33.300Z,3.77
2018-02-01T01:09:03.329Z,3.00
2018-02-01T01:11:34.769Z,3.17
2018-02-01T01:14:04.657Z,3.13
2018-02-01T01:16:35.039Z,4.00
2018-02-01T01:19:04.931Z,3.67
2018-02-01T01:21:34.981Z,2.97
2018-02-01T01:24:04.977Z,3.90
2018-02-01T01:26:34.864Z,2.20
2018-02-01T01:29:04.719Z,3.53
2018-02-01T01:31:34.629Z,3.10
2018-02-01T01:34:04.542Z,3.47
2018-02-01T01:36:34.432Z,3.20
2018-02-01T01:39:04.703Z,3.70
2018-02-01T01:41:34.696Z,3.27
2018-02-01T01:44:04.648Z,2.70
2018-02-01T01:46:34.680Z,3.73
2018-02-01T01:49:04.623Z,3.93
2018-02-01T01:51:34.658Z,4.10
2018-02-01T01:54:04.655Z,3.13
2018-02-01T01:56:34.547Z,3.40
2018-02-01T01:59:04.480Z,3.53
2018-02-01T02:01:34.402Z,3.10
2018-02-01T02:04:04.370Z,3.23
2018-02-01T02:06:37.132Z,3.20
2018-02-01T02:09:07.067Z,2.60
2018-02-01T02:11:36.958Z,3.00
2018-02-01T02:14:07.022Z,3.43
2018-02-01T02:16:36.916Z,3.03
2018-02-01T02:19:06.889Z,2.87
2018-02-01T02:21:37.381Z,3.07
2018-02-01T02:24:07.336Z,3.07
2018-02-01T02:26:37.267Z,2.90
2018-02-01T02:29:07.342Z,3.97
2018-02-01T02:31:37.381Z,3.20
2018-02-01T02:34:07.229Z,3.17
2018-02-01T02:36:37.165Z,3.03
2018-02-01T02:39:07.878Z,3.00
2018-02-01T02:41:37.719Z,2.33
2018-02-01T02:44:07.571Z,3.40
2018-02-01T02:46:38.447Z,3.40
2018-02-01T02:49:08.301Z,6.30
2018-02-01T02:51:38.244Z,3.20
2018-02-01T02:54:08.090Z,3.30
2018-02-01T02:56:38.018Z,2.50
2018-02-01T02:59:08.732Z,4.10
2018-02-01T03:01:38.658Z,3.37
2018-02-01T03:04:08.520Z,3.07
2018-02-01T03:06:38.401Z,3.47
2018-02-01T03:09:08.493Z,2.87
2018-02-01T03:11:38.418Z,3.90
2018-02-01T03:14:08.273Z,2.90
2018-02-01T03:16:38.808Z,3.80
2018-02-01T03:19:08.679Z,4.13
2018-02-01T03:21:38.545Z,4.10
2018-02-01T03:24:08.894Z,3.57
2018-02-01T03:26:38.950Z,3.73
2018-02-01T03:29:09.244Z,3.43
2018-02-01T03:31:39.252Z,4.70
2018-02-01T03:34:09.112Z,4.27
2018-02-01T03:36:39.033Z,4.80
2018-02-01T03:39:08.971Z,3.87
2018-02-01T03:41:38.940Z,6.20
2018-02-01T03:44:08.904Z,5.23
2018-02-01T03:46:38.787Z,4.60
2018-02-01T03:49:08.693Z,4.43
2018-02-01T03:51:38.657Z,5.10
2018-02-01T03:54:08.503Z,4.60
2018-02-01T03:56:38.616Z,4.47
2018-02-01T03:59:08.568Z,4.87
2018-02-01T04:01:38.540Z,5.70
2018-02-01T04:04:08.525Z,5.90
2018-02-01T04:06:38.664Z,6.53
2018-02-01T04:09:08.627Z,5.60
2018-02-01T04:11:38.533Z,6.40
2018-02-01T04:14:08.417Z,6.67
2018-02-01T04:16:38.309Z,6.40
2018-02-01T04:19:08.319Z,7.27
2018-02-01T04:21:38.252Z,6.97
2018-02-01T04:24:08.173Z,7.30
2018-02-01T04:26:38.054Z,7.27
2018-02-01T04:29:07.935Z,7.13
2018-02-01T04:31:37.869Z,7.37
2018-02-01T04:34:07.739Z,9.50
2018-02-01T04:36:37.605Z,6.80
2018-02-01T04:39:07.477Z,7.97
2018-02-01T04:41:38.319Z,7.30
2018-02-01T04:44:08.334Z,8.70
2018-02-01T04:46:38.240Z,8.30
2018-02-01T04:49:08.139Z,6.33
2018-02-01T04:51:38.013Z,7.97
2018-02-01T04:54:07.948Z,9.43
2018-02-01T04:56:38.887Z,9.23
2018-02-01T04:59:08.736Z,8.80
2018-02-01T05:01:38.590Z,9.93
2018-02-01T05:04:08.469Z,9.80
2018-02-01T05:06:38.329Z,10.00
2018-02-01T05:09:08.468Z,9.57
2018-02-01T05:11:38.348Z,9.10
2018-02-01T05:14:08.553Z,7.23
2018-02-01T05:16:38.430Z,10.60
2018-02-01T05:19:08.433Z,9.77
2018-02-01T05:21:38.361Z,11.43
2018-02-01T05:24:09.411Z,9.00
2018-02-01T05:26:39.341Z,10.80
2018-02-01T05:29:09.236Z,11.27
2018-02-01T05:31:39.114Z,9.90
2018-02-01T05:34:09.149Z,11.60
2018-02-01T05:36:39.974Z,11.00
2018-02-01T05:39:09.949Z,11.43
2018-02-01T05:41:40.810Z,11.67
2018-02-01T05:44:10.734Z,8.47
2018-02-01T05:46:40.606Z,10.17
2018-02-01T05:49:10.523Z,10.70
2018-02-01T05:51:40.362Z,7.67
2018-02-01T05:54:10.368Z,12.03
2018-02-01T05:56:40.282Z,10.73
2018-02-01T05:59:10.185Z,11.77
2018-02-01T06:01:40.017Z,14.10
2018-02-01T06:04:09.913Z,11.40
2018-02-01T06:06:39.814Z,11.80
2018-02-01T06:09:09.682Z,11.60
2018-02-01T06:11:39.551Z,11.97
2018-02-01T06:14:09.488Z,11.83
2018-02-01T06:16:40.688Z,10.63
2018-02-01T06:19:11.326Z,12.13
2018-02-01T06:21:41.237Z,12.60
2018-02-01T06:24:12.048Z,13.17
2018-02-01T06:26:42.031Z,12.20
2018-02-01T06:29:12.289Z,11.63
2018-02-01T06:31:42.173Z,13.10
2018-02-01T06:34:12.239Z,13.20
2018-02-01T06:36:42.091Z,12.47
2018-02-01T06:39:11.952Z,12.00
2018-02-01T06:41:42.601Z,13.03
2018-02-01T06:44:12.527Z,12.60
2018-02-01T06:46:42.406Z,12.30
2018-02-01T06:49:12.289Z,12.53
2018-02-01T06:51:42.466Z,13.50
2018-02-01T06:54:12.332Z,13.83
2018-02-01T06:56:42.663Z,14.50
2018-02-01T06:59:12.593Z,14.07
2018-02-01T07:01:42.537Z,14.80
2018-02-01T07:04:12.386Z,13.17
2018-02-01T07:06:42.291Z,14.27
2018-02-01T07:09:12.149Z,12.77
2018-02-01T07:11:42.141Z,14.60
2018-02-01T07:14:12.022Z,13.37
2018-02-01T07:16:41.882Z,11.60
2018-02-01T07:19:11.727Z,12.30
2018-02-01T07:21:41.640Z,12.87
2018-02-01T07:24:11.895Z,14.20
2018-02-01T07:26:41.736Z,11.80
2018-02-01T07:29:11.618Z,12.30
2018-02-01T07:31:41.561Z,12.40
2018-02-01T07:34:11.727Z,13.20
2018-02-01T07:36:41.637Z,12.90
2018-02-01T07:39:11.609Z,13.43
2018-02-01T07:41:41.471Z,13.07
2018-02-01T07:44:11.449Z,12.70
2018-02-01T07:46:46.898Z,14.13
2018-02-01T07:49:16.818Z,14.07
2018-02-01T07:51:46.653Z,14.03
2018-02-01T07:54:16.540Z,13.63
2018-02-01T07:56:46.400Z,11.93
2018-02-01T07:59:16.281Z,14.20
2018-02-01T08:01:46.185Z,14.13
2018-02-01T08:04:16.112Z,14.10
2018-02-01T08:06:46.038Z,13.67
2018-02-01T08:09:15.953Z,12.97
2018-02-01T08:11:45.823Z,12.73
2018-02-01T08:14:16.509Z,12.70
2018-02-01T08:16:46.799Z,13.70
2018-02-01T08:19:16.743Z,13.83
2018-02-01T08:21:46.592Z,12.10
2018-02-01T08:24:17.628Z,12.70
2018-02-01T08:26:47.587Z,13.70
2018-02-01T08:29:17.431Z,12.07
2018-02-01T08:31:49.023Z,12.13
2018-02-01T08:34:18.966Z,13.47
2018-02-01T08:36:48.804Z,12.77
2018-02-01T08:39:18.624Z,13.70
2018-02-01T08:41:48.579Z,12.50
2018-02-01T08:44:18.423Z,12.17
2018-02-01T08:46:48.547Z,13.27
2018-02-01T08:49:18.452Z,12.70
2018-02-01T08:51:48.373Z,11.30
2018-02-01T08:54:18.235Z,11.50
2018-02-01T08:56:48.106Z,14.07
2018-02-01T08:59:17.968Z,15.33
2018-02-01T09:01:47.855Z,15.60
2018-02-01T09:04:17.741Z,11.97
2018-02-01T09:06:47.582Z,12.57
2018-02-01T09:09:17.509Z,12.73
2018-02-01T09:11:47.499Z,14.67
2018-02-01T09:14:17.424Z,13.20
2018-02-01T09:16:47.322Z,13.40
2018-02-01T09:19:17.161Z,10.53
2018-02-01T09:21:47.069Z,14.53
2018-02-01T09:24:17.063Z,12.40
2018-02-01T09:26:47.026Z,13.43
2018-02-01T09:29:16.935Z,13.00
2018-02-01T09:31:46.820Z,11.77
2018-02-01T09:34:16.676Z,12.93
2018-02-01T09:36:46.553Z,13.60
2018-02-01T09:39:16.603Z,11.50
2018-02-01T09:41:47.210Z,11.87
2018-02-01T09:44:17.229Z,13.37
2018-02-01T09:46:47.222Z,12.17
2018-02-01T09:49:17.088Z,12.87
2018-02-01T09:51:47.618Z,13.93
2018-02-01T09:54:17.493Z,13.50
2018-02-01T09:56:47.387Z,12.47
2018-02-01T09:59:17.271Z,13.73
2018-02-01T10:01:47.172Z,14.40
2018-02-01T10:04:17.198Z,12.43
2018-02-01T10:06:47.100Z,12.77
2018-02-01T10:09:17.010Z,10.03
2018-02-01T10:11:46.883Z,13.50
2018-02-01T10:14:17.101Z,10.07
2018-02-01T10:16:46.928Z,11.13
2018-02-01T10:19:17.284Z,11.23
2018-02-01T10:21:47.204Z,12.70
2018-02-01T10:24:17.058Z,12.80
2018-02-01T10:26:46.922Z,12.17
2018-02-01T10:29:16.806Z,11.83
2018-02-01T10:31:46.716Z,13.37
2018-02-01T10:34:16.568Z,13.33
2018-02-01T10:36:46.454Z,12.23
2018-02-01T10:39:17.072Z,12.50
2018-02-01T10:41:46.933Z,11.77
2018-02-01T10:44:16.785Z,13.13
2018-02-01T10:46:46.639Z,13.03
2018-02-01T10:49:17.266Z,12.13
2018-02-01T10:51:47.238Z,12.23
2018-02-01T10:54:17.165Z,11.13
2018-02-01T10:56:47.090Z,10.20
2018-02-01T10:59:17.420Z,11.87
2018-02-01T11:01:47.268Z,12.00
2018-02-01T11:04:18.104Z,10.67
2018-02-01T11:06:47.998Z,11.70
2018-02-01T11:09:19.055Z,6.70
2018-02-01T11:11:48.916Z,10.87
2018-02-01T11:14:19.619Z,11.70
2018-02-01T11:16:49.458Z,10.83
2018-02-01T11:19:20.171Z,10.63
2018-02-01T11:21:50.021Z,10.50
2018-02-01T11:24:20.531Z,12.30
2018-02-01T11:26:51.516Z,11.23
2018-02-01T11:29:21.454Z,11.30
2018-02-01T11:31:51.296Z,11.70
2018-02-01T11:34:21.397Z,11.70
2018-02-01T11:36:51.621Z,9.90
2018-02-01T11:39:21.483Z,9.20
2018-02-01T11:41:51.341Z,11.00
2018-02-01T11:44:21.300Z,11.67
2018-02-01T11:46:51.163Z,12.10
2018-02-01T11:49:21.076Z,11.20
2018-02-01T11:51:50.944Z,10.90
2018-02-01T11:54:20.863Z,9.40
2018-02-01T11:56:50.750Z,9.83
2018-02-01T11:59:20.638Z,9.70
2018-02-01T12:01:50.485Z,10.80
2018-02-01T12:04:20.318Z,9.30
2018-02-01T12:06:50.778Z,7.10
2018-02-01T12:09:20.605Z,8.43
2018-02-01T12:11:51.064Z,10.50
2018-02-01T12:14:20.934Z,10.27
2018-02-01T12:16:50.783Z,10.60
2018-02-01T12:19:20.657Z,9.70
2018-02-01T12:21:50.520Z,10.63
2018-02-01T12:24:20.485Z,9.17
2018-02-01T12:26:50.901Z,9.87
2018-02-01T12:29:26.302Z,9.73
2018-02-01T12:31:57.213Z,8.57
2018-02-01T12:34:27.175Z,9.20
2018-02-01T12:36:57.008Z,8.70
2018-02-01T12:39:26.863Z,8.67
2018-02-01T12:41:56.764Z,9.37
2018-02-01T12:44:26.646Z,8.60
2018-02-01T12:46:56.480Z,9.30
2018-02-01T12:49:26.425Z,9.63
2018-02-01T12:51:56.330Z,8.70
2018-02-01T12:54:26.453Z,8.77
2018-02-01T12:56:56.452Z,9.37
2018-02-01T12:59:26.310Z,8.83
2018-02-01T13:01:56.222Z,8.83
2018-02-01T13:04:26.078Z,7.67
2018-02-01T13:06:56.121Z,8.93
2018-02-01T13:09:27.365Z,8.23
2018-02-01T13:24:18.516Z,9.03
2018-02-01T13:26:49.384Z,8.53
2018-02-01T13:29:19.704Z,9.23
2018-02-01T13:32:00.475Z,8.70
2018-02-01T14:57:57.234Z,8.37
2018-02-01T15:00:27.912Z,7.10
2018-02-01T17:04:50.481Z,8.90
2018-02-01T17:21:59.536Z,9.27
2018-02-01T17:24:29.729Z,10.20
2018-02-01T17:27:00.643Z,10.40
2018-02-01T17:29:30.633Z,11.13
2018-02-01T17:32:00.541Z,10.63
2018-02-01T17:34:30.458Z,10.50
2018-02-01T17:37:00.416Z,10.47
2018-02-01T17:39:30.449Z,10.60
2018-02-01T17:42:01.136Z,11.43
2018-02-01T17:44:30.979Z,11.60
2018-02-01T17:47:00.920Z,12.80
2018-02-01T17:49:30.815Z,12.00
2018-02-01T17:52:00.684Z,11.40
2018-02-01T17:54:30.588Z,13.27
2018-02-01T17:57:00.470Z,11.53
2018-02-01T17:59:30.300Z,12.23
2018-02-01T18:02:00.469Z,13.40
2018-02-01T18:04:30.599Z,13.50
2018-02-01T18:07:00.577Z,12.07
2018-02-01T18:09:30.430Z,12.60
2018-02-01T18:12:00.551Z,13.37
2018-02-01T18:14:30.508Z,12.87
2018-02-01T18:17:00.434Z,12.03
2018-02-01T18:19:31.275Z,12.23
2018-02-01T18:22:01.942Z,14.37
2018-02-01T18:24:31.761Z,13.03
2018-02-01T18:27:01.709Z,11.93
2018-02-01T18:29:31.641Z,11.90
2018-02-01T18:32:01.523Z,12.67
2018-02-01T18:34:31.409Z,13.10
2018-02-01T18:37:02.048Z,12.20
2018-02-01T18:39:31.972Z,13.07
2018-02-01T18:42:01.834Z,13.57
2018-02-01T18:44:31.760Z,13.77
2018-02-01T18:47:02.426Z,12.57
2018-02-01T18:49:32.353Z,13.70
2018-02-01T18:52:02.222Z,13.30
2018-02-01T18:54:32.082Z,13.87
2018-02-01T18:57:01.908Z,13.47
2018-02-01T18:59:31.865Z,14.80
2018-02-01T19:02:01.749Z,13.90
2018-02-01T19:04:31.651Z,15.30
2018-02-01T19:07:02.455Z,15.10
2018-02-01T19:09:32.331Z,14.40
2018-02-01T19:12:02.184Z,14.80
2018-02-01T19:14:32.082Z,21.90
2018-02-01T19:17:02.226Z,16.67
2018-02-01T19:19:32.120Z,17.20
2018-02-01T19:22:02.039Z,15.13
2018-02-01T19:24:32.084Z,18.50
2018-02-01T19:27:02.065Z,17.40
2018-02-01T19:29:31.974Z,14.77
2018-02-01T19:32:01.857Z,16.53
2018-02-01T19:34:31.809Z,16.90
2018-02-01T19:37:01.872Z,15.47
2018-02-01T19:39:32.065Z,15.37
2018-02-01T19:42:01.972Z,15.93
2018-02-01T19:44:31.854Z,16.80
2018-02-01T19:47:01.825Z,15.20
2018-02-01T19:49:32.561Z,14.60
2018-02-01T19:52:02.403Z,14.67
2018-02-01T19:54:32.286Z,14.70
2018-02-01T19:57:02.254Z,16.20
2018-02-01T19:59:32.278Z,15.40
2018-02-01T20:02:02.272Z,15.20
2018-02-01T20:04:32.212Z,14.70
2018-02-01T20:07:02.594Z,14.00
2018-02-01T20:09:32.536Z,11.07
2018-02-01T20:12:02.530Z,14.70
2018-02-01T20:14:33.276Z,13.23
2018-02-01T20:17:04.094Z,13.80
2018-02-01T20:19:34.013Z,15.03
2018-02-01T20:22:03.976Z,15.43
2018-02-01T20:24:34.342Z,15.40
2018-02-01T20:27:04.183Z,14.97
2018-02-01T20:29:34.062Z,14.87
2018-02-01T20:32:04.981Z,14.10
2018-02-01T20:34:34.925Z,13.47
2018-02-01T20:37:06.462Z,15.83
2018-02-01T20:39:36.416Z,14.83
2018-02-01T20:42:06.296Z,15.13
2018-02-01T20:44:36.931Z,16.50
2018-02-01T20:47:06.858Z,15.10
2018-02-01T20:49:36.768Z,14.60
2018-02-01T20:52:06.653Z,14.33
2018-02-01T20:54:36.523Z,13.23
2018-02-01T20:57:06.511Z,16.87
2018-02-01T20:59:36.404Z,16.17
2018-02-01T21:02:06.309Z,13.83
2018-02-01T21:04:37.768Z,15.67
2018-02-01T21:07:07.727Z,14.90
2018-02-01T21:09:37.686Z,15.60
2018-02-01T21:12:12.237Z,15.97
2018-02-01T21:14:42.193Z,15.20
2018-02-01T21:17:13.029Z,14.73
2018-02-01T21:19:42.932Z,15.67
2018-02-01T21:22:12.937Z,15.70
2018-02-01T21:24:42.824Z,15.20
2018-02-01T21:27:12.717Z,14.73
2018-02-01T21:29:42.570Z,15.30
2018-02-01T21:32:12.445Z,15.60
2018-02-01T21:34:42.268Z,14.60
2018-02-01T21:37:12.137Z,14.43
2018-02-01T21:39:41.996Z,15.20
2018-02-01T21:42:11.857Z,11.60
2018-02-01T21:44:41.749Z,16.13
2018-02-01T21:47:11.812Z,13.53
2018-02-01T21:49:41.678Z,16.93
2018-02-01T21:52:11.510Z,15.23
2018-02-01T21:54:41.502Z,13.23
2018-02-01T21:57:11.404Z,14.17
2018-02-01T21:59:41.289Z,14.90
2018-02-01T22:02:11.171Z,14.10
2018-02-01T22:04:41.083Z,13.33
2018-02-01T22:07:11.803Z,12.63
2018-02-01T22:09:41.728Z,15.70
2018-02-01T22:12:11.689Z,14.53
2018-02-01T22:14:41.534Z,15.83
2018-02-01T22:17:12.657Z,14.03
2018-02-01T22:22:49.917Z,13.57
2018-02-01T22:25:19.906Z,13.90
2018-02-01T22:27:53.323Z,14.50
2018-02-01T22:30:26.591Z,14.93
2018-02-01T22:32:57.078Z,13.23
2018-02-01T22:35:26.941Z,14.33
2018-02-01T22:37:57.863Z,14.33
2018-02-01T22:40:28.908Z,15.73
2018-02-01T22:42:58.843Z,13.20
2018-02-01T22:45:28.823Z,13.50
2018-02-01T22:47:58.724Z,13.90
2018-02-01T22:50:28.592Z,14.07
2018-02-01T22:52:58.482Z,13.90
2018-02-01T22:55:28.359Z,14.47
2018-02-01T22:57:58.245Z,13.67
2018-02-01T23:00:28.142Z,12.20
2018-02-01T23:02:58.096Z,14.97
2018-02-01T23:05:28.041Z,11.63
2018-02-01T23:07:57.928Z,12.87
2018-02-01T23:10:27.812Z,14.10
2018-02-01T23:12:57.760Z,14.50
2018-02-01T23:15:27.775Z,12.70
2018-02-01T23:17:57.724Z,13.40
2018-02-01T23:20:27.598Z,15.37
2018-02-01T23:22:57.550Z,15.20
2018-02-01T23:25:27.415Z,15.70
2018-02-01T23:27:57.632Z,14.90
2018-02-01T23:30:27.530Z,15.63
2018-02-01T23:32:57.633Z,14.80
2018-02-01T23:35:28.491Z,15.17
2018-02-01T23:37:58.356Z,15.53
2018-02-01T23:40:28.242Z,13.60
2018-02-01T23:42:58.179Z,14.90
2018-02-01T23:45:28.218Z,14.67
2018-02-01T23:47:59.064Z,11.07
2018-02-01T23:50:29.146Z,15.30
2018-02-01T23:52:59.147Z,15.90
2018-02-01T23:55:29.549Z,15.60
2018-02-01T23:57:59.525Z,15.90
